Time,TemperatureF,DewpointF,PressureIn,WindDirection,WindDirectionDegrees,WindSpeedMPH,WindSpeedGustMPH,Humidity,HourlyPrecipIn,Conditions,Clouds,dailyrainin,SoftwareType,DateUTC
2013-02-16 00:00:00,18.3,11.1,30.27,North,350,0.0,0.0,73,0.00,,,0.00,Wunderground v.1.15,2013-02-16 06:00:00,
2013-02-16 00:10:00,18.0,11.1,30.27,North,350,0.0,0.0,74,0.00,,,0.00,Wunderground v.1.15,2013-02-16 06:10:00,
2013-02-16 00:20:00,17.8,10.9,30.27,North,350,0.0,0.0,74,0.00,,,0.00,Wunderground v.1.15,2013-02-16 06:20:00,
2013-02-16 00:30:00,17.7,10.8,30.27,North,350,0.0,0.0,74,0.00,,,0.00,Wunderground v.1.15,2013-02-16 06:30:00,
2013-02-16 00:40:00,17.5,10.9,30.27,North,350,0.0,0.0,75,0.00,,,0.00,Wunderground v.1.15,2013-02-16 06:40:00,
2013-02-16 00:50:00,17.3,10.7,30.27,North,350,0.0,0.0,75,0.00,,,0.00,Wunderground v.1.15,2013-02-16 06:50:00,
2013-02-16 01:00:00,17.2,10.6,30.27,North,350,0.0,0.0,75,0.00,,,0.00,Wunderground v.1.15,2013-02-16 07:00:00,
2013-02-16 01:10:00,17.0,10.7,30.27,North,350,0.0,1.0,76,0.00,,,0.00,Wunderground v.1.15,2013-02-16 07:10:00,
2013-02-16 01:20:00,16.9,10.6,30.27,North,350,0.0,1.0,76,0.00,,,0.00,Wunderground v.1.15,2013-02-16 07:20:00,
2013-02-16 01:30:00,16.7,10.4,30.27,North,350,0.0,1.0,76,0.00,,,0.00,Wunderground v.1.15,2013-02-16 07:30:00,
2013-02-16 01:40:00,16.5,10.3,30.27,North,350,0.0,1.0,76,0.00,,,0.00,Wunderground v.1.15,2013-02-16 07:40:00,
2013-02-16 01:50:00,16.4,10.2,30.27,North,350,0.0,1.0,76,0.00,,,0.00,Wunderground v.1.15,2013-02-16 07:50:00,
2013-02-16 02:00:00,16.2,10.0,30.27,North,350,0.0,1.0,76,0.00,,,0.00,Wunderground v.1.15,2013-02-16 08:00:00,
2013-02-16 02:10:00,16.1,9.9,30.27,North,350,0.0,1.0,76,0.00,,,0.00,Wunderground v.1.15,2013-02-16 08:10:00,
2013-02-16 02:20:00,15.9,9.7,30.27,North,350,0.0,1.0,76,0.00,,,0.00,Wunderground v.1.15,2013-02-16 08:20:00,
2013-02-16 02:30:00,15.7,9.5,30.26,North,350,0.0,1.0,76,0.00,,,0.00,Wunderground v.1.15,2013-02-16 08:30:00,
2013-02-16 02:40:00,15.4,9.2,30.26,NNW,345,1.0,2.0,76,0.00,,,0.00,Wunderground v.1.15,2013-02-16 08:40:00,
2013-02-16 02:50:00,15.2,9.0,30.26,NW,325,0.0,1.0,76,0.00,,,0.00,Wunderground v.1.15,2013-02-16 08:50:00,
2013-02-16 03:00:00,15.2,9.0,30.26,NW,325,0.0,1.0,76,0.00,,,0.00,Wunderground v.1.15,2013-02-16 09:00:00,
2013-02-16 03:10:00,15.1,8.9,30.26,NW,325,0.0,1.0,76,0.00,,,0.00,Wunderground v.1.15,2013-02-16 09:10:00,
2013-02-16 03:20:00,14.9,8.7,30.25,NW,325,0.0,1.0,76,0.00,,,0.00,Wunderground v.1.15,2013-02-16 09:20:00,
2013-02-16 03:30:00,14.8,8.6,30.25,NW,325,0.0,1.0,76,0.00,,,0.00,Wunderground v.1.15,2013-02-16 09:30:00,
2013-02-16 03:40:00,14.6,8.4,30.25,NW,325,0.0,1.0,76,0.00,,,0.00,Wunderground v.1.15,2013-02-16 09:40:00,
2013-02-16 03:50:00,14.4,8.2,30.24,NW,325,0.0,1.0,76,0.00,,,0.00,Wunderground v.1.15,2013-02-16 09:50:00,
2013-02-16 04:00:00,14.3,8.1,30.24,NW,325,0.0,1.0,76,0.00,,,0.00,Wunderground v.1.15,2013-02-16 10:00:00,
2013-02-16 04:10:00,14.0,8.1,30.24,NW,325,0.0,1.0,77,0.00,,,0.00,Wunderground v.1.15,2013-02-16 10:10:00,
2013-02-16 04:20:00,13.8,7.9,30.25,NW,325,0.0,1.0,77,0.00,,,0.00,Wunderground v.1.15,2013-02-16 10:20:00,
2013-02-16 04:30:00,13.8,7.9,30.24,NW,325,0.0,1.0,77,0.00,,,0.00,Wunderground v.1.15,2013-02-16 10:30:00,
2013-02-16 04:40:00,13.6,7.7,30.24,NW,325,0.0,1.0,77,0.00,,,0.00,Wunderground v.1.15,2013-02-16 10:40:00,
2013-02-16 04:50:00,13.5,7.9,30.24,NW,325,0.0,1.0,78,0.00,,,0.00,Wunderground v.1.15,2013-02-16 10:50:00,
2013-02-16 05:00:00,13.3,7.7,30.24,NW,325,0.0,1.0,78,0.00,,,0.00,Wunderground v.1.15,2013-02-16 11:00:00,
2013-02-16 05:10:00,13.1,7.5,30.24,NW,325,0.0,1.0,78,0.00,,,0.00,Wunderground v.1.15,2013-02-16 11:10:00,
2013-02-16 05:20:00,12.9,7.3,30.24,NW,325,0.0,1.0,78,0.00,,,0.00,Wunderground v.1.15,2013-02-16 11:20:00,
2013-02-16 05:30:00,12.8,7.2,30.24,NW,325,0.0,1.0,78,0.00,,,0.00,Wunderground v.1.15,2013-02-16 11:30:00,
2013-02-16 05:40:00,12.8,7.2,30.24,NW,325,0.0,1.0,78,0.00,,,0.00,Wunderground v.1.15,2013-02-16 11:40:00,
2013-02-16 05:50:00,12.6,7.3,30.24,NW,325,0.0,1.0,79,0.00,,,0.00,Wunderground v.1.15,2013-02-16 11:50:00,
2013-02-16 06:00:00,12.6,7.3,30.23,NW,325,0.0,1.0,79,0.00,,,0.00,Wunderground v.1.15,2013-02-16 12:00:00,
2013-02-16 06:10:00,12.4,7.1,30.23,NW,325,0.0,1.0,79,0.00,,,0.00,Wunderground v.1.15,2013-02-16 12:10:00,
2013-02-16 06:20:00,12.4,7.1,30.23,NW,325,0.0,1.0,79,0.00,,,0.00,Wunderground v.1.15,2013-02-16 12:20:00,
2013-02-16 06:30:00,12.3,7.3,30.23,NW,325,0.0,1.0,80,0.00,,,0.00,Wunderground v.1.15,2013-02-16 12:30:00,
2013-02-16 06:40:00,12.3,7.3,30.23,NW,325,0.0,1.0,80,0.00,,,0.00,Wunderground v.1.15,2013-02-16 12:40:00,
2013-02-16 06:50:00,12.3,7.3,30.23,NW,325,0.0,1.0,80,0.00,,,0.00,Wunderground v.1.15,2013-02-16 12:50:00,
2013-02-16 07:00:00,12.3,7.3,30.23,NW,325,0.0,1.0,80,0.00,,,0.00,Wunderground v.1.15,2013-02-16 13:00:00,
2013-02-16 07:10:00,12.4,7.4,30.23,NW,325,0.0,1.0,80,0.00,,,0.00,Wunderground v.1.15,2013-02-16 13:10:00,
2013-02-16 07:20:00,12.4,7.7,30.23,NW,325,0.0,1.0,81,0.00,,,0.00,Wunderground v.1.15,2013-02-16 13:20:00,
2013-02-16 07:30:00,12.6,7.9,30.24,NW,325,0.0,1.0,81,0.00,,,0.00,Wunderground v.1.15,2013-02-16 13:30:00,
2013-02-16 07:40:00,12.6,7.9,30.24,NW,325,0.0,1.0,81,0.00,,,0.00,Wunderground v.1.15,2013-02-16 13:40:00,
2013-02-16 07:50:00,12.8,8.1,30.24,NW,325,0.0,1.0,81,0.00,,,0.00,Wunderground v.1.15,2013-02-16 13:50:00,
2013-02-16 08:00:00,13.1,8.6,30.24,NW,324,0.0,1.0,82,0.00,,,0.00,Wunderground v.1.15,2013-02-16 14:00:00,
2013-02-16 08:10:00,13.5,9.0,30.24,NW,323,0.0,1.0,82,0.00,,,0.00,Wunderground v.1.15,2013-02-16 14:10:00,
2013-02-16 08:20:00,14.0,9.5,30.24,West,270,1.0,1.0,82,0.00,,,0.00,Wunderground v.1.15,2013-02-16 14:20:00,
2013-02-16 08:30:00,14.3,9.8,30.24,West,277,0.0,1.0,82,0.00,,,0.00,Wunderground v.1.15,2013-02-16 14:30:00,
2013-02-16 08:40:00,14.9,10.4,30.24,WNW,299,0.0,1.0,82,0.00,,,0.00,Wunderground v.1.15,2013-02-16 14:40:00,
2013-02-16 08:50:00,15.7,11.2,30.23,WNW,296,0.0,2.0,82,0.00,,,0.00,Wunderground v.1.15,2013-02-16 14:50:00,
2013-02-16 09:00:00,16.7,11.9,30.23,WNW,296,0.0,1.0,81,0.00,,,0.00,Wunderground v.1.15,2013-02-16 15:00:00,
2013-02-16 09:10:00,17.7,11.7,30.23,WNW,296,0.0,1.0,77,0.00,,,0.00,Wunderground v.1.15,2013-02-16 15:10:00,
2013-02-16 09:20:00,17.8,10.9,30.22,WNW,295,0.0,1.0,74,0.00,,,0.00,Wunderground v.1.15,2013-02-16 15:20:00,
2013-02-16 09:30:00,18.6,11.4,30.22,SW,227,1.0,1.0,73,0.00,,,0.00,Wunderground v.1.15,2013-02-16 15:30:00,
2013-02-16 09:40:00,18.9,11.0,30.22,West,268,1.0,1.0,71,0.00,,,0.00,Wunderground v.1.15,2013-02-16 15:40:00,
2013-02-16 09:50:00,19.4,11.2,30.22,WSW,257,0.0,1.0,70,0.00,,,0.00,Wunderground v.1.15,2013-02-16 15:50:00,
2013-02-16 10:00:00,20.5,11.6,30.21,WSW,256,0.0,7.0,68,0.00,,,0.00,Wunderground v.1.15,2013-02-16 16:00:00,
2013-02-16 10:10:00,20.8,11.6,30.21,West,269,1.0,1.0,67,0.00,,,0.00,Wunderground v.1.15,2013-02-16 16:10:00,
2013-02-16 10:20:00,21.9,11.9,30.21,West,264,1.0,3.0,65,0.00,,,0.00,Wunderground v.1.15,2013-02-16 16:20:00,
2013-02-16 10:30:00,22.1,11.8,30.21,West,276,2.0,2.0,64,0.00,,,0.00,Wunderground v.1.15,2013-02-16 16:30:00,
2013-02-16 10:40:00,22.9,12.5,30.21,West,259,1.0,6.0,64,0.00,,,0.00,Wunderground v.1.15,2013-02-16 16:40:00,
2013-02-16 10:50:00,23.2,12.8,30.21,WSW,239,3.0,3.0,64,0.00,,,0.00,Wunderground v.1.15,2013-02-16 16:50:00,
2013-02-16 11:00:00,23.9,13.1,30.20,WSW,238,2.0,2.0,63,0.00,,,0.00,Wunderground v.1.15,2013-02-16 17:00:00,
2013-02-16 11:10:00,24.5,14.1,30.20,WNW,291,1.0,2.0,64,0.00,,,0.00,Wunderground v.1.15,2013-02-16 17:10:00,
2013-02-16 11:20:00,25.1,13.9,30.19,South,172,1.0,6.0,62,0.00,,,0.00,Wunderground v.1.15,2013-02-16 17:20:00,
2013-02-16 11:30:00,25.1,13.5,30.19,WSW,254,2.0,2.0,61,0.00,,,0.00,Wunderground v.1.15,2013-02-16 17:30:00,
2013-02-16 11:40:00,26.1,14.1,30.19,WNW,282,1.0,1.0,60,0.00,,,0.00,Wunderground v.1.15,2013-02-16 17:40:00,
2013-02-16 11:50:00,25.6,13.2,30.18,WSW,254,2.0,4.0,59,0.00,,,0.00,Wunderground v.1.15,2013-02-16 17:50:00,
2013-02-16 12:00:00,26.9,15.2,30.17,NW,310,1.0,1.0,61,0.00,,,0.00,Wunderground v.1.15,2013-02-16 18:00:00,
2013-02-16 12:10:00,27.5,15.4,30.17,WNW,296,1.0,2.0,60,0.00,,,0.00,Wunderground v.1.15,2013-02-16 18:10:00,
2013-02-16 12:20:00,28.1,14.8,30.16,West,275,1.0,4.0,57,0.00,,,0.00,Wunderground v.1.15,2013-02-16 18:20:00,
2013-02-16 12:30:00,27.8,14.9,30.15,WNW,284,2.0,2.0,58,0.00,,,0.00,Wunderground v.1.15,2013-02-16 18:30:00,
2013-02-16 12:40:00,29.0,15.2,30.15,WSW,244,1.0,1.0,56,0.00,,,0.00,Wunderground v.1.15,2013-02-16 18:40:00,
2013-02-16 12:50:00,29.7,15.5,30.14,WSW,247,2.0,2.0,55,0.00,,,0.00,Wunderground v.1.15,2013-02-16 18:50:00,
2013-02-16 13:00:00,29.4,14.8,30.13,West,275,1.0,1.0,54,0.00,,,0.00,Wunderground v.1.15,2013-02-16 19:00:00,
2013-02-16 13:10:00,30.1,15.0,30.13,West,276,1.0,1.0,53,0.00,,,0.00,Wunderground v.1.15,2013-02-16 19:10:00,
2013-02-16 13:20:00,31.2,15.2,30.12,SSW,193,2.0,2.0,51,0.00,,,0.00,Wunderground v.1.15,2013-02-16 19:20:00,
2013-02-16 13:30:00,31.3,15.2,30.12,WNW,289,1.0,1.0,51,0.00,,,0.00,Wunderground v.1.15,2013-02-16 19:30:00,
2013-02-16 13:40:00,32.1,16.0,30.12,West,277,1.0,1.0,51,0.00,,,0.00,Wunderground v.1.15,2013-02-16 19:40:00,
2013-02-16 13:50:00,31.6,14.1,30.11,West,277,1.0,1.0,48,0.00,,,0.00,Wunderground v.1.15,2013-02-16 19:50:00,
2013-02-16 14:00:00,32.1,14.1,30.11,SW,219,3.0,3.0,47,0.00,,,0.00,Wunderground v.1.15,2013-02-16 20:00:00,
2013-02-16 14:10:00,32.4,12.9,30.11,NNW,338,2.0,2.0,44,0.00,,,0.00,Wunderground v.1.15,2013-02-16 20:10:00,
2013-02-16 14:20:00,33.2,14.6,30.10,West,267,1.0,9.0,46,0.00,,,0.00,Wunderground v.1.15,2013-02-16 20:20:00,
2013-02-16 14:30:00,33.1,13.5,30.10,West,266,3.0,3.0,44,0.00,,,0.00,Wunderground v.1.15,2013-02-16 20:30:00,
2013-02-16 14:40:00,33.7,15.1,30.10,WNW,289,1.0,1.0,46,0.00,,,0.00,Wunderground v.1.15,2013-02-16 20:40:00,
2013-02-16 14:50:00,33.8,14.2,30.10,South,187,1.0,1.0,44,0.00,,,0.00,Wunderground v.1.15,2013-02-16 20:50:00,
2013-02-16 15:00:00,34.1,13.9,30.09,WSW,242,2.0,2.0,43,0.00,,,0.00,Wunderground v.1.15,2013-02-16 21:00:00,
2013-02-16 15:10:00,34.3,13.6,30.09,WSW,255,2.0,3.0,42,0.00,,,0.00,Wunderground v.1.15,2013-02-16 21:10:00,
2013-02-16 15:20:00,34.3,13.0,30.08,WNW,293,1.0,1.0,41,0.00,,,0.00,Wunderground v.1.15,2013-02-16 21:20:00,
2013-02-16 15:30:00,35.0,13.6,30.08,SW,226,1.0,1.0,41,0.00,,,0.00,Wunderground v.1.15,2013-02-16 21:30:00,
2013-02-16 15:40:00,34.6,12.7,30.08,WNW,288,2.0,4.0,40,0.00,,,0.00,Wunderground v.1.15,2013-02-16 21:40:00,
2013-02-16 15:50:00,34.1,12.8,30.09,West,268,2.0,2.0,41,0.00,,,0.00,Wunderground v.1.15,2013-02-16 21:50:00,
2013-02-16 16:00:00,34.9,12.4,30.08,West,262,0.0,1.0,39,0.00,,,0.00,Wunderground v.1.15,2013-02-16 22:00:00,
2013-02-16 16:10:00,34.7,12.8,30.08,West,280,1.0,1.0,40,0.00,,,0.00,Wunderground v.1.15,2013-02-16 22:10:00,
2013-02-16 16:20:00,34.7,13.4,30.08,West,267,1.0,3.0,41,0.00,,,0.00,Wunderground v.1.15,2013-02-16 22:20:00,
2013-02-16 16:30:00,34.4,13.1,30.08,WNW,292,1.0,1.0,41,0.00,,,0.00,Wunderground v.1.15,2013-02-16 22:30:00,
2013-02-16 16:40:00,34.6,13.3,30.08,WNW,298,0.0,1.0,41,0.00,,,0.00,Wunderground v.1.15,2013-02-16 22:40:00,
2013-02-16 16:50:00,34.4,13.1,30.08,WNW,298,0.0,2.0,41,0.00,,,0.00,Wunderground v.1.15,2013-02-16 22:50:00,
2013-02-16 17:00:00,34.4,13.1,30.08,WNW,298,1.0,1.0,41,0.00,,,0.00,Wunderground v.1.15,2013-02-16 23:00:00,
2013-02-16 17:10:00,34.3,13.0,30.08,WNW,298,0.0,1.0,41,0.00,,,0.00,Wunderground v.1.15,2013-02-16 23:10:00,
2013-02-16 17:20:00,34.1,13.4,30.08,WNW,298,0.0,1.0,42,0.00,,,0.00,Wunderground v.1.15,2013-02-16 23:20:00,
2013-02-16 17:30:00,33.8,13.6,30.08,WNW,298,0.0,1.0,43,0.00,,,0.00,Wunderground v.1.15,2013-02-16 23:30:00,
2013-02-16 17:40:00,33.7,13.5,30.08,WNW,298,0.0,1.0,43,0.00,,,0.00,Wunderground v.1.15,2013-02-16 23:40:00,
2013-02-16 17:50:00,33.2,13.6,30.08,WNW,298,0.0,1.0,44,0.00,,,0.00,Wunderground v.1.15,2013-02-16 23:50:00,
2013-02-16 18:00:00,32.9,13.3,30.08,WNW,298,0.0,1.0,44,0.00,,,0.00,Wunderground v.1.15,2013-02-17 00:00:00,
2013-02-16 18:10:00,32.5,14.0,30.08,WNW,298,0.0,1.0,46,0.00,,,0.00,Wunderground v.1.15,2013-02-17 00:10:00,
2013-02-16 18:20:00,32.1,13.6,30.08,WNW,298,0.0,1.0,46,0.00,,,0.00,Wunderground v.1.15,2013-02-17 00:20:00,
2013-02-16 18:30:00,31.6,13.7,30.08,WNW,298,0.0,1.0,47,0.00,,,0.00,Wunderground v.1.15,2013-02-17 00:30:00,
2013-02-16 18:40:00,31.2,13.8,30.08,WNW,298,0.0,1.0,48,0.00,,,0.00,Wunderground v.1.15,2013-02-17 00:40:00,
2013-02-16 18:50:00,30.7,13.8,30.09,WNW,298,0.0,1.0,49,0.00,,,0.00,Wunderground v.1.15,2013-02-17 00:50:00,
2013-02-16 19:00:00,30.4,14.0,30.09,WNW,298,0.0,1.0,50,0.00,,,0.00,Wunderground v.1.15,2013-02-17 01:00:00,
2013-02-16 19:10:00,30.0,14.0,30.09,WNW,298,0.0,1.0,51,0.00,,,0.00,Wunderground v.1.15,2013-02-17 01:10:00,
2013-02-16 19:20:00,29.7,14.2,30.09,WNW,298,0.0,1.0,52,0.00,,,0.00,Wunderground v.1.15,2013-02-17 01:20:00,
2013-02-16 19:30:00,29.3,14.3,30.09,WNW,298,0.0,1.0,53,0.00,,,0.00,Wunderground v.1.15,2013-02-17 01:30:00,
2013-02-16 19:40:00,29.1,14.5,30.09,WNW,298,0.0,1.0,54,0.00,,,0.00,Wunderground v.1.15,2013-02-17 01:40:00,
2013-02-16 19:50:00,28.8,14.6,30.09,WNW,298,0.0,1.0,55,0.00,,,0.00,Wunderground v.1.15,2013-02-17 01:50:00,
2013-02-16 20:00:00,28.7,15.0,30.09,WNW,298,0.0,1.0,56,0.00,,,0.00,Wunderground v.1.15,2013-02-17 02:00:00,
2013-02-16 20:10:00,28.7,15.0,30.09,WNW,298,0.0,1.0,56,0.00,,,0.00,Wunderground v.1.15,2013-02-17 02:10:00,
2013-02-16 20:20:00,28.5,15.2,30.08,WNW,298,0.0,1.0,57,0.00,,,0.00,Wunderground v.1.15,2013-02-17 02:20:00,
2013-02-16 20:30:00,28.5,15.2,30.08,WNW,298,0.0,1.0,57,0.00,,,0.00,Wunderground v.1.15,2013-02-17 02:30:00,
2013-02-16 20:40:00,28.4,15.1,30.08,WNW,298,0.0,1.0,57,0.00,,,0.00,Wunderground v.1.15,2013-02-17 02:40:00,
2013-02-16 20:50:00,28.2,14.9,30.08,WNW,298,0.0,1.0,57,0.00,,,0.00,Wunderground v.1.15,2013-02-17 02:50:00,
2013-02-16 21:00:00,28.1,15.2,30.08,WNW,298,0.0,1.0,58,0.00,,,0.00,Wunderground v.1.15,2013-02-17 03:00:00,
2013-02-16 21:10:00,27.8,14.9,30.08,WNW,298,0.0,1.0,58,0.00,,,0.00,Wunderground v.1.15,2013-02-17 03:10:00,
2013-02-16 21:20:00,27.5,14.6,30.08,WNW,298,0.0,1.0,58,0.00,,,0.00,Wunderground v.1.15,2013-02-17 03:20:00,
2013-02-16 21:30:00,27.3,14.8,30.08,WNW,298,0.0,1.0,59,0.00,,,0.00,Wunderground v.1.15,2013-02-17 03:30:00,
2013-02-16 21:40:00,27.0,14.6,30.08,WNW,298,0.0,1.0,59,0.00,,,0.00,Wunderground v.1.15,2013-02-17 03:40:00,
2013-02-16 21:50:00,26.9,14.9,30.08,WNW,298,0.0,1.0,60,0.00,,,0.00,Wunderground v.1.15,2013-02-17 03:50:00,
2013-02-16 22:00:00,26.7,14.7,30.08,WNW,298,0.0,1.0,60,0.00,,,0.00,Wunderground v.1.15,2013-02-17 04:00:00,
2013-02-16 22:10:00,26.6,14.9,30.08,WNW,298,0.0,1.0,61,0.00,,,0.00,Wunderground v.1.15,2013-02-17 04:10:00,
2013-02-16 22:20:00,26.3,14.7,30.08,WNW,298,0.0,1.0,61,0.00,,,0.00,Wunderground v.1.15,2013-02-17 04:20:00,
2013-02-16 22:30:00,26.1,14.8,30.08,WNW,298,0.0,1.0,62,0.00,,,0.00,Wunderground v.1.15,2013-02-17 04:30:00,
2013-02-16 22:40:00,25.8,14.9,30.08,WNW,298,0.0,1.0,63,0.00,,,0.00,Wunderground v.1.15,2013-02-17 04:40:00,
2013-02-16 22:50:00,25.6,14.7,30.08,WNW,298,0.0,1.0,63,0.00,,,0.00,Wunderground v.1.15,2013-02-17 04:50:00,
2013-02-16 23:00:00,25.4,14.9,30.07,WNW,298,0.0,1.0,64,0.00,,,0.00,Wunderground v.1.15,2013-02-17 05:00:00,
2013-02-16 23:10:00,25.1,15.0,30.07,WNW,298,0.0,1.0,65,0.00,,,0.00,Wunderground v.1.15,2013-02-17 05:10:00,
2013-02-16 23:20:00,24.8,15.0,30.07,WNW,298,0.0,1.0,66,0.00,,,0.00,Wunderground v.1.15,2013-02-17 05:20:00,
2013-02-16 23:30:00,24.5,15.1,30.06,WNW,298,0.0,1.0,67,0.00,,,0.00,Wunderground v.1.15,2013-02-17 05:30:00,
2013-02-16 23:40:00,24.2,15.2,30.06,WNW,298,0.0,1.0,68,0.00,,,0.00,Wunderground v.1.15,2013-02-17 05:40:00,
2013-02-16 23:50:00,24.1,15.4,30.07,WNW,298,0.0,1.0,69,0.00,,,0.00,Wunderground v.1.15,2013-02-17 05:50:00,